x

Nfb - Northwest Florida Bay, Fl (nfbf1) Weather Station

4:54am - Mon 30th Mar 2015 All times are CDT. -4 hours from GMT.

  • Wind
    16mph, 18mph gusts
  • Air Temp 64°f
  • Sea Pressure 1022.8mb
  • Nfb - Northwest Florida Bay, Fl
  • Nfb - Northwest Florida Bay, Fl

More Historic Weather Station data

Upgrade to MSW Pro to gain access to the past 30 days of data for over 8000 Wavebouys and Weather Stations around the globe.

Join Pro

Comparision Forecast

View Surf forecast
   
Mon 03/30 4:54am 16 18 mph 1022.8mb 64f
4:48am 16 18 mph 1022.8mb 64f
4:42am 16 18 mph 1022.8mb 64f
4:36am 16 20 mph 1022.8mb 64f
3:54am 16 18 mph 1022.9mb 64f
3:48am 17 21 mph 1022.9mb 64f
3:42am 16 18 mph 1022.9mb 64f
3:36am 16 18 mph 1022.9mb 64f
2:54am 16 18 mph 1023.3mb 64f
2:48am 16 17 mph 1023.3mb 64f
2:42am 15 17 mph 1023.4mb 65f
2:36am 15 17 mph 1023.4mb 65f
1:54am 15 18 mph 1024mb 65f
1:48am 15 17 mph 1024mb 65f
1:42am 15 18 mph 1024.1mb 65f
1:36am 16 17 mph 1024.2mb 66f
12:54am 17 20 mph 1024.6mb 66f
12:48am 15 20 mph 1024.7mb 67f
12:42am 16 20 mph 1024.7mb 67f
12:36am 15 17 mph 1024.8mb 67f
Sun 03/29 11:54pm 15 20 mph 1025mb 68f
11:48pm 15 18 mph 1025.1mb 68f
11:42pm 15 18 mph 1025.3mb 68f
11:36pm 15 18 mph 1025.2mb 68f
11:30pm 15 18 mph 1025.3mb 68f
11:24pm 16 18 mph 1025.3mb 68f
11:18pm 16 18 mph 1025.3mb 69f
11:12pm 16 17 mph 1025.4mb 69f
11:06pm 16 18 mph 1025.4mb 69f
11:00pm 15 20 mph 1025.4mb 69f
10:54pm 16 18 mph 1025.4mb 69f
10:48pm 15 18 mph 1025.4mb 69f
10:42pm 16 21 mph 1025.4mb 69f
10:36pm 17 20 mph 1025.3mb 69f
9:54pm 18 23 mph 1025mb 70f
9:48pm 20 23 mph 1024.8mb 70f
9:42pm 18 21 mph 1024.8mb 71f
9:36pm 20 22 mph 1024.8mb 71f
8:54pm 17 22 mph 1024.3mb 71f
8:48pm 16 20 mph 1024.3mb 71f
8:42pm 17 20 mph 1024.2mb 71f
8:36pm 16 20 mph 1024.2mb 71f
7:54pm 13 16 mph 1023.8mb 74f
7:48pm 11 14 mph 1023.7mb 74f
7:42pm 11 14 mph 1023.7mb 74f
7:36pm 13 15 mph 1023.7mb 75f
6:54pm 14 16 mph 1023.3mb 76f
6:48pm 14 18 mph 1023.2mb 76f
6:42pm 15 17 mph 1023.1mb 76f
6:36pm 15 18 mph 1023mb 76f
5:54pm 14 17 mph 1023mb 76f
5:48pm 15 18 mph 1023.1mb 76f
5:42pm 14 17 mph 1023.2mb 76f
5:36pm 14 16 mph 1023.2mb 76f
4:54pm 14 16 mph 1023.5mb 76f
4:48pm 13 15 mph 1023.6mb 76f
4:42pm 14 17 mph 1023.6mb 76f
4:36pm 15 20 mph 1023.6mb 76f
3:54pm 13 15 mph 1023.8mb 75f
3:48pm 13 17 mph 1023.9mb 76f
3:42pm 11 18 mph 1023.9mb 76f
3:36pm 13 16 mph 1023.9mb 75f
2:54pm 10 13 mph 1024.3mb 74f
2:48pm 14 18 mph 1024.3mb 74f
2:42pm 14 16 mph 1024.4mb 74f
2:36pm 14 18 mph 1024.3mb 74f
1:54pm 14 16 mph 1024.9mb 73f
1:48pm 14 16 mph 1025mb 73f
1:42pm 13 14 mph 1025mb 73f
1:36pm 13 14 mph 1025mb 73f
12:54pm 15 17 mph 1025.7mb 71f
12:48pm 14 18 mph 1025.7mb 71f
12:42pm 14 17 mph 1025.8mb 71f
12:36pm 14 17 mph 1025.8mb 71f
11:54am 16 21 mph 1025.8mb 69f
11:48am 16 21 mph 1025.9mb 69f
11:42am 15 18 mph 1025.9mb 69f
11:36am 15 17 mph 1025.8mb 69f
10:54am 15 17 mph 1025.8mb 67f
10:48am 15 17 mph 1025.8mb 66f
10:42am 15 18 mph 1025.7mb 66f
10:36am 16 20 mph 1025.7mb 66f
9:54am 17 21 mph 1025.4mb 64f
9:48am 20 23 mph 1025.3mb 63f
9:42am 18 23 mph 1025.2mb 63f
9:36am 18 22 mph 1025.1mb 62f
8:54am 21 24 mph 1024.8mb 61f
8:48am 22 25 mph 1024.7mb 60f
8:42am 22 28 mph 1024.6mb 60f
8:36am 22 25 mph 1024.6mb 60f
7:54am 21 25 mph 1024.3mb 59f
7:48am 21 24 mph 1024.3mb 59f
7:42am 20 24 mph 1024.2mb 60f
7:36am 20 23 mph 1024mb 59f
6:54am 20 23 mph 1023.6mb 60f
6:48am 20 24 mph 1023.6mb 60f
6:42am 20 23 mph 1023.5mb 60f
6:36am 20 23 mph 1023.3mb 60f
5:54am 20 22 mph 1022.5mb 61f
5:48am 20 25 mph 1022.5mb 61f
5:42am 17 21 mph 1022.3mb 61f
5:36am 17 20 mph 1022.2mb 62f
4:54am 17 20 mph 1022.3mb 62f
4:48am 17 21 mph 1022.1mb 62f
4:42am 17 21 mph 1022.3mb 63f
4:36am 18 22 mph 1022.3mb 63f
3:54am 15 20 mph 1022.4mb 63f
3:48am 15 18 mph 1022.5mb 63f
3:42am 15 17 mph 1022.6mb 63f
3:36am 16 18 mph 1022.6mb 64f
2:54am 14 17 mph 1022.8mb 65f
2:48am 14 16 mph 1022.8mb 65f
2:42am 14 16 mph 1022.9mb 65f
2:36am 11 14 mph 1022.9mb 65f
1:54am 11 14 mph 1023.2mb 65f
1:48am 13 14 mph 1023.4mb 65f
1:42am 11 14 mph 1023.6mb 65f
1:36am 13 15 mph 1023.5mb 65f
12:54am 13 16 mph 1023.7mb 66f
12:48am 14 16 mph 1023.6mb 66f
12:42am 14 16 mph 1023.5mb 67f
12:36am 15 17 mph 1023.5mb 67f
Sat 03/28 11:54pm 16 18 mph 1023.7mb 68f
11:48pm 15 18 mph 1023.7mb 68f
11:42pm 15 17 mph 1023.7mb 68f
11:36pm 16 18 mph 1023.7mb 68f
10:54pm 10 13 mph 1023.2mb 71f
10:48pm 9 11 mph 1023.2mb 71f
10:42pm 8 10 mph 1023.2mb 71f
10:36pm 9 10 mph 1023.1mb 71f
9:54pm 9 10 mph 1022.7mb 71f
9:48pm 10 11 mph 1022.8mb 71f
9:42pm 11 13 mph 1022.6mb 71f
9:36pm 11 14 mph 1022.5mb 71f
8:54pm 10 13 mph 1021.7mb 71f
8:48pm 9 11 mph 1021.8mb 71f
8:42pm 10 13 mph 1021.9mb 71f
8:36pm 10 13 mph 1021.8mb 71f
7:54pm 11 14 mph 1021.3mb 70f
7:48pm 11 15 mph 1021.1mb 70f
7:42pm 11 15 mph 1020.8mb 70f
7:36pm 10 14 mph 1020.8mb 70f
6:54pm 14 16 mph 1020.5mb 70f
6:48pm 13 16 mph 1020.6mb 70f
6:42pm 11 15 mph 1020.7mb 71f
6:36pm 10 14 mph 1020.8mb 70f
5:54pm 11 16 mph 1020.4mb 70f
5:48pm 13 16 mph 1020.5mb 70f
5:42pm 11 16 mph 1020.6mb 70f
5:36pm 13 15 mph 1020.7mb 70f
4:54pm 15 18 mph 1020mb 71f
4:48pm 15 17 mph 1019.8mb 70f
4:42pm 14 20 mph 1019.8mb 70f
4:36pm 14 16 mph 1019.8mb 71f
3:54pm 14 16 mph 1020.1mb 71f
3:48pm 15 18 mph 1020.3mb 71f
3:42pm 15 18 mph 1020.4mb 70f
3:36pm 14 18 mph 1020.4mb 70f
2:54pm 13 17 mph 1021mb 70f
2:48pm 13 16 mph 1021.2mb 71f
2:42pm 14 18 mph 1021.3mb 70f
2:36pm 14 17 mph 1021.3mb 70f
1:54pm 10 16 mph 1021.2mb 71f
1:48pm 7 10 mph 1021.2mb 71f
1:42pm 9 13 mph 1021.2mb 71f
1:36pm 8 13 mph 1021.3mb 71f
12:54pm 10 14 mph 1021.7mb 68f
12:48pm 10 16 mph 1021.7mb 69f
12:42pm 9 14 mph 1021.8mb 69f
12:36pm 8 13 mph 1022mb 69f
11:54am 10 14 mph 1021.9mb 68f
11:48am 11 16 mph 1021.8mb 68f
11:42am 14 17 mph 1021.6mb 67f
11:36am 14 18 mph 1021.5mb 67f
10:54am 15 20 mph 1021.6mb 66f
10:48am 14 18 mph 1021.5mb 66f
10:42am 15 20 mph 1021.5mb 66f
10:36am 16 21 mph 1021.4mb 66f
9:54am 17 22 mph 1020.6mb 65f
9:48am 17 21 mph 1020.6mb 65f
9:42am 16 20 mph 1020.5mb 65f
9:36am 15 17 mph 1020.3mb 65f
8:54am 17 20 mph 1019.9mb 65f
8:48am 18 22 mph 1019.7mb 65f
8:42am 18 22 mph 1019.7mb 66f
8:36am 18 24 mph 1019.5mb 66f
7:54am 20 24 mph 1019.1mb 66f
7:48am 18 23 mph 1019mb 66f
7:42am 20 23 mph 1018.9mb 66f
7:36am 18 23 mph 1018.9mb 66f
6:54am 18 22 mph 1018mb 67f
6:48am 16 22 mph 1018mb 67f
6:42am 17 22 mph 1018mb 67f
6:36am 17 22 mph 1017.8mb 67f
5:54am 21 24 mph 1017.2mb 68f
5:48am 20 22 mph 1017.2mb 69f
5:42am 20 22 mph 1017.1mb 69f
5:36am 20 23 mph 1017.1mb 69f
4:54am 20 24 mph 1016.6mb 71f
4:48am 21 26 mph 1016.4mb 72f
4:42am 21 24 mph 1016.3mb 74f
4:36am 23 28 mph 1016.1mb 74f
3:54am 21 24 mph 1016.2mb 75f
3:48am 20 24 mph 1016.3mb 75f
3:42am 21 25 mph 1016.4mb 75f
3:36am 22 24 mph 1016.3mb 75f
3:30am 22 25 mph 1016.4mb 75f
3:24am 23 26 mph 1016.4mb 75f
3:18am 23 29 mph 1016.2mb 75f
3:12am 24 28 mph 1016.1mb 75f
3:06am 24 28 mph 1016.1mb 76f
3:00am 23 29 mph 1016.2mb 76f
2:54am 23 26 mph 1016.2mb 76f
2:48am 23 29 mph 1016.3mb 76f
2:42am 24 29 mph 1016.3mb 76f
2:36am 23 26 mph 1016.3mb 76f
1:54am 18 24 mph 1016.2mb 76f
1:48am 21 26 mph 1016.1mb 76f
1:42am 22 28 mph 1016.3mb 76f
1:36am 21 24 mph 1016.4mb 76f
12:54am 21 24 mph 1015.7mb 76f
12:48am 20 22 mph 1015.9mb 76f
12:42am 21 23 mph 1016.3mb 76f
12:36am 17 22 mph 1015.9mb 76f
Fri 03/27 11:54pm 16 20 mph 1015.6mb 76f
11:48pm 16 20 mph 1015.4mb 76f
11:42pm 15 18 mph 1015.4mb 75f
11:36pm 16 20 mph 1015.3mb 75f
10:54pm 17 22 mph 1015.8mb 76f
10:48pm 18 23 mph 1015.5mb 76f
10:42pm 17 21 mph 1015.2mb 76f
10:36pm 17 20 mph 1015.1mb 75f
9:54pm 21 26 mph 1015.6mb 76f
9:48pm 23 28 mph 1015.6mb 76f
9:42pm 23 28 mph 1015.4mb 76f
9:36pm 21 25 mph 1015.3mb 76f
8:54pm 29 33 mph 1015.2mb 75f
8:48pm 26 31 mph 1014.9mb 76f
8:42pm 24 29 mph 1014.7mb 76f
8:36pm 25 29 mph 1014.6mb 75f
7:54pm 31 37 mph 1013.4mb 74f
7:48pm 32 37 mph 1013.3mb 74f
7:42pm 32 39 mph 1013.3mb 74f
7:36pm 33 40 mph 1012.9mb 74f
6:54pm 29 34 mph 1012.8mb 76f
6:48pm 26 30 mph 1012.5mb 76f
6:42pm 25 32 mph 1012.2mb 76f
6:36pm 16 24 mph 1012mb 81f
5:54pm 17 20 mph 1012.4mb 82f
5:48pm 18 21 mph 1012.4mb 82f
5:42pm 18 22 mph 1012.4mb 82f
5:36pm 18 22 mph 1012.3mb 82f
4:54pm 17 21 mph 1012mb 82f
4:48pm 18 21 mph 1012mb 82f
4:42pm 17 20 mph 1011.9mb 82f
4:36pm 17 20 mph 1012mb 82f
3:54pm 20 22 mph 1012.1mb 82f
3:48pm 18 23 mph 1012.2mb 82f
3:42pm 21 24 mph 1012.2mb 82f
3:36pm 20 23 mph 1012.3mb 82f
2:54pm 20 22 mph 1012.9mb 82f
2:48pm 20 22 mph 1012.9mb 82f
2:42pm 20 22 mph 1012.9mb 82f
2:36pm 18 22 mph 1013mb 82f
1:54pm 18 22 mph 1013.6mb 82f
1:48pm 18 22 mph 1013.7mb 82f
1:42pm 17 22 mph 1013.9mb 82f
1:36pm 17 20 mph 1013.9mb 82f
12:54pm 13 15 mph 1014.3mb 81f
12:48pm 11 14 mph 1014.4mb 81f
12:42pm 10 13 mph 1014.5mb 81f
12:36pm 11 13 mph 1014.7mb 81f
11:54am 11 14 mph 1014.9mb 81f
11:48am 10 13 mph 1014.9mb 81f
11:42am 11 13 mph 1014.9mb 81f
11:36am 10 14 mph 1014.8mb 81f
10:54am 11 14 mph 1015.3mb 81f
10:48am 13 14 mph 1015.3mb 81f
10:42am 11 14 mph 1015.3mb 81f
10:36am 11 14 mph 1015.3mb 81f
9:54am 13 14 mph 1014.9mb 81f
9:48am 13 15 mph 1014.8mb 81f
9:42am 14 16 mph 1014.8mb 81f
9:36am 14 16 mph 1014.8mb 81f
8:54am 14 16 mph 1014.6mb 81f
8:48am 15 16 mph 1014.6mb 81f
8:42am 15 17 mph 1014.6mb 81f
8:36am 15 17 mph 1014.5mb 81f
7:54am 14 16 mph 1014.3mb 81f
7:48am 15 16 mph 1014.3mb 81f
7:42am 14 15 mph 1014.3mb 81f
7:36am 14 16 mph 1014.3mb 81f
6:54am 15 17 mph 1013.7mb 81f
6:48am 14 17 mph 1013.7mb 81f
6:42am 14 17 mph 1013.6mb 81f
6:36am 15 18 mph 1013.5mb 81f
5:54am 15 17 mph 1013.2mb 81f
5:48am 15 16 mph 1013.1mb 81f
5:42am 15 16 mph 1013.2mb 81f
5:36am 14 16 mph 1013.2mb 81f
5:30am 15 17 mph 1013.1mb 81f
5:24am 14 16 mph 1013.1mb 81f
5:18am 14 17 mph 1013.1mb 81f
5:12am 15 18 mph 1013.1mb 81f
5:06am 16 17 mph 1013mb 81f
5:00am 15 18 mph 1013.1mb 81f
4:54am 16 18 mph 1013.2mb 81f
4:48am 16 18 mph 1013.3mb 81f
4:42am 16 18 mph 1013.4mb 81f
4:36am 16 18 mph 1013.4mb 81f
4:30am 16 18 mph 1013.6mb 81f
4:24am 16 18 mph 1013.7mb 81f
4:18am 15 18 mph 1013.6mb 81f
4:12am 17 20 mph 1013.6mb 81f
4:06am 16 20 mph 1013.7mb 81f
4:00am 16 20 mph 1013.7mb 81f
3:54am 17 20 mph 1013.6mb 81f
3:48am 17 21 mph 1013.7mb 81f
3:42am 16 18 mph 1013.7mb 81f
3:36am 17 18 mph 1013.8mb 81f
2:54am 16 18 mph 1014.3mb 81f
2:48am 16 18 mph 1014.2mb 81f
2:42am 16 21 mph 1014.3mb 81f
2:36am 16 18 mph 1014.3mb 81f
1:54am 16 18 mph 1014.6mb 81f
1:48am 16 18 mph 1014.7mb 81f
1:42am 16 18 mph 1014.7mb 81f
1:36am 17 18 mph 1014.6mb 81f
12:54am 17 20 mph 1014.8mb 81f
12:48am 16 18 mph 1014.8mb 82f
12:42am 16 20 mph 1014.8mb 82f
12:36am 16 20 mph 1014.9mb 82f
Thu 03/26 11:54pm 16 18 mph 1015.3mb 82f
11:48pm 16 20 mph 1015.3mb 82f
11:42pm 16 20 mph 1015.4mb 82f
11:36pm 16 18 mph 1015.4mb 82f
10:54pm 10 13 mph 1015.1mb 82f
10:48pm 10 14 mph 1015.1mb 82f
10:42pm 11 13 mph 1015mb 82f
10:36pm 10 13 mph 1014.8mb 82f
9:54pm 13 14 mph 1014.4mb 82f
9:48pm 13 14 mph 1014.4mb 82f
9:42pm 13 14 mph 1014.4mb 82f
9:36pm 13 14 mph 1014.3mb 82f
8:54pm 14 16 mph 1014mb 81f
8:48pm 13 15 mph 1014mb 82f
8:42pm 11 15 mph 1013.9mb 82f
8:36pm 13 15 mph 1013.8mb 81f
7:54pm 13 15 mph 1013.8mb 82f
7:48pm 11 14 mph 1013.8mb 82f
7:42pm 13 16 mph 1013.9mb 81f
7:36pm 13 15 mph 1013.8mb 82f
6:54pm 13 16 mph 1013.7mb 82f
6:48pm 14 16 mph 1013.7mb 82f
6:42pm 14 16 mph 1013.7mb 82f
6:36pm 13 16 mph 1013.7mb 82f
5:54pm 15 18 mph 1013.8mb 82f
5:48pm 15 17 mph 1013.8mb 82f
5:42pm 16 18 mph 1013.9mb 82f
5:36pm 15 18 mph 1013.9mb 82f
4:54pm 15 17 mph 1014.4mb 82f
4:48pm 16 18 mph 1014.5mb 82f
4:42pm 15 20 mph 1014.6mb 82f
4:36pm 16 20 mph 1014.5mb 82f
3:54pm 17 21 mph 1014.8mb 82f
3:48pm 17 20 mph 1014.8mb 82f
3:42pm 17 21 mph 1014.9mb 82f
3:36pm 17 21 mph 1014.9mb 82f
2:54pm 18 22 mph 1015.3mb 82f
2:48pm 17 21 mph 1015.4mb 82f
2:42pm 18 20 mph 1015.5mb 82f
2:36pm 17 21 mph 1015.6mb 82f
1:54pm 17 21 mph 1016.2mb 82f
1:48pm 16 22 mph 1016.4mb 82f
1:42pm 16 18 mph 1016.5mb 82f
1:36pm 16 20 mph 1016.6mb 82f
12:54pm 18 21 mph 1017.4mb 82f
12:48pm 16 20 mph 1017.5mb 82f
12:42pm 16 18 mph 1017.6mb 82f
12:36pm 16 20 mph 1017.8mb 82f
11:54am 15 20 mph 1018.2mb 82f
11:48am 15 18 mph 1018.3mb 82f
11:42am 14 17 mph 1018.3mb 81f
11:36am 15 17 mph 1018.3mb 81f
10:54am 15 17 mph 1018.4mb 81f
10:48am 16 18 mph 1018.4mb 81f
10:42am 15 17 mph 1018.3mb 81f